createdAt,value
2023-05-01T09:44:45.344Z,49.85
2023-05-01T09:46:50.562Z,49.05
2023-05-01T09:48:59.943Z,49.45
2023-05-01T09:51:27.649Z,49.79
2023-05-01T09:53:40.705Z,49.66
2023-05-01T09:56:01.625Z,49.80
2023-05-01T09:58:06.659Z,49.34
2023-05-01T10:00:13.418Z,49.57
2023-05-01T10:02:30.953Z,48.99
2023-05-01T10:04:36.453Z,49.07
2023-05-01T10:06:42.964Z,49.09
2023-05-01T10:08:49.506Z,49.19
2023-05-01T10:11:04.459Z,49.38
2023-05-01T10:13:19.164Z,48.98
2023-05-01T10:15:36.172Z,49.21
2023-05-01T10:17:42.676Z,49.09
2023-05-01T10:19:47.696Z,49.02
2023-05-01T10:21:53.160Z,48.91
2023-05-01T10:23:58.100Z,49.00
2023-05-01T10:26:05.306Z,48.42
2023-05-01T10:28:14.753Z,48.82
2023-05-01T10:30:20.935Z,48.89
2023-05-01T10:32:25.999Z,49.08
2023-05-01T10:34:35.695Z,48.83
2023-05-01T10:36:45.409Z,48.65
2023-05-01T10:38:50.450Z,48.36
2023-05-01T10:40:55.502Z,48.96
2023-05-01T10:43:17.668Z,48.92
2023-05-01T10:45:33.216Z,49.07
2023-05-01T10:47:47.977Z,48.42
2023-05-01T10:50:07.026Z,48.70
2023-05-01T10:52:11.981Z,48.66
2023-05-01T10:54:27.203Z,48.94
2023-05-01T10:56:44.663Z,49.05
2023-05-01T10:59:00.507Z,49.32
2023-05-01T11:01:29.841Z,48.67
2023-05-01T11:03:37.901Z,48.53
2023-05-01T11:06:08.425Z,48.61
2023-05-01T11:08:30.854Z,48.03
2023-05-01T11:10:35.740Z,48.58
2023-05-01T11:12:53.750Z,48.65
2023-05-01T11:15:05.996Z,48.27
2023-05-01T11:17:11.181Z,48.34
2023-05-01T11:19:47.411Z,48.06
2023-05-01T11:21:52.693Z,47.88
2023-05-01T11:23:57.685Z,47.55
2023-05-01T11:26:06.061Z,47.10
2023-05-01T11:28:12.000Z,47.46
2023-05-01T11:30:17.349Z,46.84
2023-05-01T11:32:26.766Z,46.71
2023-05-01T11:34:36.603Z,46.83
2023-05-01T11:36:51.494Z,46.49
2023-05-01T11:38:58.434Z,46.69
2023-05-01T11:41:04.375Z,46.28
2023-05-01T11:43:09.653Z,46.03
2023-05-01T11:45:15.674Z,46.51
2023-05-01T11:47:20.637Z,46.45
2023-05-01T11:49:29.939Z,46.34
2023-05-01T11:51:35.021Z,45.80
2023-05-01T11:53:40.120Z,45.74
2023-05-01T11:55:45.403Z,46.09
2023-05-01T11:57:52.458Z,45.73
2023-05-01T11:59:57.655Z,45.47
2023-05-01T12:02:02.553Z,45.28
2023-05-01T12:04:08.295Z,45.12
2023-05-01T12:06:14.116Z,45.12
2023-05-01T12:08:20.945Z,45.17
2023-05-01T12:10:25.971Z,45.46
2023-05-01T12:12:31.190Z,45.42
2023-05-01T12:14:36.394Z,45.07
2023-05-01T12:16:42.196Z,44.89
2023-05-01T12:18:47.362Z,44.92
2023-05-01T12:20:54.037Z,44.55
2023-05-01T12:22:59.695Z,44.51
2023-05-01T12:25:05.796Z,44.43
2023-05-01T12:27:11.532Z,44.53
2023-05-01T12:29:16.447Z,44.41
2023-05-01T12:31:21.859Z,44.54
2023-05-01T12:33:27.271Z,44.59
2023-05-01T12:35:32.570Z,44.42
2023-05-01T12:37:38.096Z,44.15
2023-05-01T12:39:44.468Z,43.85
2023-05-01T12:41:50.172Z,44.05
2023-05-01T12:43:55.090Z,44.17
2023-05-01T12:46:00.767Z,43.92
2023-05-01T12:48:11.958Z,43.81
2023-05-01T12:50:17.026Z,43.68
2023-05-01T12:52:28.150Z,44.10
2023-05-01T12:54:34.612Z,43.85
2023-05-01T12:56:40.436Z,43.86
2023-05-01T12:58:45.588Z,43.91
2023-05-01T13:00:52.465Z,43.72
2023-05-01T13:03:04.970Z,43.47
2023-05-01T13:05:12.217Z,43.58
2023-05-01T13:07:18.911Z,43.78
2023-05-01T13:09:24.197Z,43.58
2023-05-01T13:11:29.104Z,43.12
2023-05-01T13:13:35.988Z,43.22
2023-05-01T13:15:41.045Z,43.17
2023-05-01T13:17:46.222Z,43.36
2023-05-01T13:19:56.505Z,43.15
2023-05-01T13:22:02.037Z,43.01
2023-05-01T13:24:07.608Z,43.02
2023-05-01T13:26:13.502Z,42.95
2023-05-01T13:28:20.888Z,42.60
2023-05-01T13:30:34.162Z,42.76
2023-05-01T13:32:41.355Z,43.18
2023-05-01T13:34:46.192Z,43.62
2023-05-01T13:36:51.010Z,43.45
2023-05-01T13:38:57.258Z,43.60
2023-05-01T13:41:02.437Z,43.83
2023-05-01T13:43:14.861Z,43.72
2023-05-01T13:45:21.610Z,43.72
2023-05-01T13:47:27.515Z,43.48
2023-05-01T13:49:32.437Z,43.50
2023-05-01T13:51:40.624Z,43.65
2023-05-01T13:53:45.598Z,43.74
2023-05-01T13:55:50.419Z,43.42
2023-05-01T13:57:55.340Z,43.61
2023-05-01T14:00:00.299Z,43.50
2023-05-01T14:02:19.325Z,43.52
2023-05-01T14:04:24.272Z,43.59
2023-05-01T14:06:29.071Z,43.77
2023-05-01T14:08:34.020Z,43.49
2023-05-01T14:10:39.206Z,43.85
2023-05-01T14:12:44.222Z,44.07
2023-05-01T14:14:49.707Z,43.71
2023-05-01T14:16:54.708Z,43.77
2023-05-01T14:18:59.596Z,43.83
2023-05-01T14:21:04.470Z,43.84
2023-05-01T14:23:09.256Z,43.36
2023-05-01T14:25:24.896Z,43.34
2023-05-01T14:27:29.751Z,43.40
2023-05-01T14:29:34.645Z,43.53
2023-05-01T14:31:39.665Z,43.93
2023-05-01T14:33:44.915Z,43.83
2023-05-01T14:35:52.294Z,43.41
2023-05-01T14:37:57.657Z,43.36
2023-05-01T14:40:03.188Z,43.47
2023-05-01T14:42:08.371Z,43.54
2023-05-01T14:44:18.559Z,43.86
2023-05-01T14:46:29.640Z,43.59
2023-05-01T14:48:37.160Z,43.26
2023-05-01T14:50:42.198Z,43.15
2023-05-01T14:52:47.422Z,42.95
2023-05-01T14:54:52.483Z,42.98
2023-05-01T14:56:57.559Z,43.00
2023-05-01T14:59:02.733Z,42.97
2023-05-01T15:01:07.748Z,42.90
2023-05-01T15:03:12.994Z,42.75
2023-05-01T15:05:18.257Z,42.92
2023-05-01T15:07:23.435Z,43.07
2023-05-01T15:09:28.423Z,43.28
2023-05-01T15:11:33.516Z,43.14
2023-05-01T15:13:38.898Z,43.34
2023-05-01T15:15:43.924Z,43.52
2023-05-01T15:17:48.850Z,43.76
2023-05-01T15:19:53.930Z,43.71
2023-05-01T15:21:58.886Z,43.80
2023-05-01T15:24:03.924Z,43.88
2023-05-01T15:26:09.026Z,43.82
2023-05-01T15:28:14.670Z,43.90
2023-05-01T15:30:19.594Z,43.80
2023-05-01T15:32:24.629Z,43.94
2023-05-01T15:34:29.516Z,44.01
2023-05-01T15:36:34.652Z,44.33
2023-05-01T15:38:39.603Z,44.25
2023-05-01T15:40:45.573Z,44.08
2023-05-01T15:42:50.408Z,44.05
2023-05-01T15:44:55.606Z,44.23
2023-05-01T15:47:00.612Z,44.19
2023-05-01T15:49:08.028Z,44.29
2023-05-01T15:51:13.010Z,44.18
2023-05-01T15:53:18.015Z,44.19
2023-05-01T15:55:23.071Z,43.95
2023-05-01T15:57:28.136Z,44.23
2023-05-01T15:59:33.098Z,44.50
2023-05-01T16:01:38.289Z,44.86
2023-05-01T16:03:47.395Z,44.99
2023-05-01T16:05:52.446Z,44.82
2023-05-01T16:07:59.894Z,44.70
2023-05-01T16:10:05.541Z,44.83
2023-05-01T16:12:11.052Z,44.83
2023-05-01T16:14:17.635Z,44.88
2023-05-01T16:16:25.003Z,44.98
2023-05-01T16:18:30.095Z,45.21
2023-05-01T16:20:42.729Z,45.38
2023-05-01T16:22:47.706Z,45.20
2023-05-01T16:24:52.637Z,45.45
2023-05-01T16:26:57.700Z,45.59
2023-05-01T16:29:06.207Z,45.76
2023-05-01T16:31:26.071Z,45.92
2023-05-01T16:33:33.725Z,45.93
2023-05-01T16:35:38.692Z,46.11
2023-05-01T16:37:43.823Z,46.25
2023-05-01T16:39:48.883Z,46.43
2023-05-01T16:41:54.987Z,46.44
2023-05-01T16:44:01.180Z,46.66
2023-05-01T16:46:06.465Z,46.86
2023-05-01T16:48:15.614Z,46.88
2023-05-01T16:50:22.056Z,47.04
2023-05-01T16:52:27.257Z,47.17
2023-05-01T16:54:32.243Z,47.24
2023-05-01T16:56:37.256Z,47.47
2023-05-01T16:58:42.601Z,47.63
2023-05-01T17:00:47.592Z,47.96
2023-05-01T17:02:52.748Z,47.82
2023-05-01T17:04:58.085Z,48.04
2023-05-01T17:07:03.027Z,48.18
2023-05-01T17:09:07.975Z,48.19
2023-05-01T17:11:13.034Z,48.41
2023-05-01T17:13:17.835Z,48.61
2023-05-01T17:15:23.125Z,48.53
2023-05-01T17:17:28.202Z,48.87
2023-05-01T17:19:33.663Z,49.00
2023-05-01T17:21:41.591Z,48.93
2023-05-01T17:23:46.604Z,48.98
2023-05-01T17:25:51.700Z,49.19
2023-05-01T17:27:56.793Z,49.27
2023-05-01T17:30:02.089Z,49.48
2023-05-01T17:32:08.323Z,49.70
2023-05-01T17:34:13.396Z,49.88
2023-05-01T17:36:18.343Z,50.03
2023-05-01T17:38:23.204Z,50.15
2023-05-01T17:40:29.011Z,50.36
2023-05-01T17:42:34.137Z,50.55
2023-05-01T17:44:39.065Z,50.61
2023-05-01T17:46:44.116Z,50.66
2023-05-01T17:48:49.088Z,50.77
2023-05-01T17:50:54.219Z,50.85
2023-05-01T17:53:00.451Z,51.05
2023-05-01T17:55:07.586Z,51.22
2023-05-01T17:57:13.221Z,51.38
2023-05-01T17:59:18.520Z,51.53
2023-05-01T18:01:24.503Z,51.71
2023-05-01T18:03:30.194Z,51.94
2023-05-01T18:05:35.415Z,52.05
2023-05-01T18:07:41.227Z,52.24
2023-05-01T18:09:46.655Z,52.30
2023-05-01T18:11:52.310Z,52.46
2023-05-01T18:13:58.198Z,52.55
2023-05-01T18:16:03.246Z,52.69
2023-05-01T18:18:09.562Z,52.71
2023-05-01T18:20:16.401Z,52.85
2023-05-01T18:22:21.991Z,52.99
2023-05-01T18:24:26.936Z,53.11
2023-05-01T18:26:32.485Z,53.17
2023-05-01T18:28:37.612Z,53.28
2023-05-01T18:30:43.524Z,53.33
2023-05-01T18:32:49.411Z,53.42
2023-05-01T18:34:55.299Z,53.65
2023-05-01T18:37:02.047Z,53.69
2023-05-01T18:39:08.529Z,53.90
2023-05-01T18:41:14.019Z,53.98
2023-05-01T18:43:20.048Z,54.05
2023-05-01T18:45:28.120Z,54.16
2023-05-01T18:47:33.949Z,54.21
2023-05-01T18:49:40.639Z,54.26
2023-05-01T18:51:46.842Z,54.37
2023-05-01T18:53:52.482Z,54.50
2023-05-01T18:55:57.438Z,54.39
2023-05-01T18:58:03.035Z,54.67
2023-05-01T19:00:11.727Z,54.61
2023-05-01T19:02:17.499Z,54.70
2023-05-01T19:04:23.644Z,54.82
2023-05-01T19:06:42.199Z,54.91
2023-05-01T19:08:51.074Z,54.95
2023-05-01T19:10:56.575Z,54.83
2023-05-01T19:13:02.256Z,55.15
2023-05-01T19:15:13.488Z,55.22
2023-05-01T19:17:19.868Z,55.44
2023-05-01T19:19:25.640Z,55.44
2023-05-01T19:21:35.229Z,55.48
2023-05-01T19:23:40.769Z,55.65
2023-05-01T19:25:49.186Z,55.77
2023-05-01T19:27:56.321Z,56.05
2023-05-01T19:30:03.297Z,56.14
2023-05-01T19:32:10.303Z,56.37
2023-05-01T19:34:16.680Z,56.52
2023-05-01T19:36:21.831Z,56.58
2023-05-01T19:38:27.673Z,56.80
2023-05-01T19:40:34.491Z,56.73
2023-05-01T19:42:40.558Z,56.98
2023-05-01T19:44:46.743Z,57.10
2023-05-01T19:46:52.914Z,57.28
2023-05-01T19:48:58.487Z,57.38
2023-05-01T19:51:06.635Z,57.49
2023-05-01T19:53:20.683Z,57.63
2023-05-01T19:55:27.137Z,57.75
2023-05-01T19:57:33.239Z,57.93
2023-05-01T19:59:39.202Z,58.09
2023-05-01T20:01:44.578Z,58.37
2023-05-01T20:03:50.652Z,58.58
2023-05-01T20:05:56.416Z,58.76
2023-05-01T20:08:01.350Z,58.82
2023-05-01T20:10:07.306Z,59.28
2023-05-01T20:12:12.412Z,59.42
2023-05-01T20:14:17.826Z,59.92
2023-05-01T20:16:23.605Z,59.87
2023-05-01T20:18:28.671Z,60.16
2023-05-01T20:20:35.038Z,60.36
2023-05-01T20:22:39.905Z,60.46
2023-05-01T20:24:45.395Z,60.66
2023-05-01T20:26:51.132Z,60.73
2023-05-01T20:28:56.086Z,61.05
2023-05-01T20:31:01.067Z,61.21
2023-05-01T20:33:07.125Z,61.13
2023-05-01T20:35:12.853Z,61.62
2023-05-01T20:37:18.565Z,61.65
2023-05-01T20:39:23.647Z,61.67
2023-05-01T20:41:29.277Z,61.85
2023-05-01T20:43:34.716Z,61.74
2023-05-01T20:45:39.747Z,62.11
2023-05-01T20:47:44.736Z,62.25
2023-05-01T20:49:49.747Z,62.24
2023-05-01T20:51:55.174Z,62.43
2023-05-01T20:54:00.052Z,62.52
2023-05-01T20:56:05.388Z,62.13
2023-05-01T20:58:10.700Z,62.30
2023-05-01T21:00:16.021Z,62.50
2023-05-01T21:02:23.947Z,62.95
2023-05-01T21:04:29.004Z,63.12
2023-05-01T21:06:34.304Z,63.28
2023-05-01T21:08:39.102Z,63.20
2023-05-01T21:10:44.068Z,63.33
2023-05-01T21:12:49.108Z,63.37
2023-05-01T21:14:54.028Z,63.49
2023-05-01T21:16:59.193Z,63.33
2023-05-01T21:19:04.329Z,63.30
2023-05-01T21:21:10.203Z,63.18
2023-05-01T21:23:16.700Z,63.19
2023-05-01T21:25:24.501Z,63.18
2023-05-01T21:27:29.546Z,63.11
2023-05-01T21:29:35.222Z,63.21
2023-05-01T21:31:40.457Z,63.12
2023-05-01T21:33:46.146Z,63.25
2023-05-01T21:35:51.193Z,63.21
2023-05-01T21:37:56.162Z,62.87
2023-05-01T21:40:01.894Z,63.22
2023-05-01T21:42:07.606Z,63.27
2023-05-01T21:44:12.450Z,63.02
2023-05-01T21:46:18.970Z,62.98
2023-05-01T21:48:23.992Z,62.95
2023-05-01T21:50:34.867Z,63.08
2023-05-01T21:52:39.725Z,63.25
2023-05-01T21:54:44.623Z,63.39
2023-05-01T21:56:49.611Z,63.36
2023-05-01T21:58:59.756Z,63.54
2023-05-01T22:01:04.773Z,63.49
2023-05-01T22:03:16.401Z,63.23
2023-05-01T22:05:22.845Z,63.40
2023-05-01T22:07:28.153Z,63.35
2023-05-01T22:09:33.565Z,63.35
2023-05-01T22:11:38.455Z,63.56
2023-05-01T22:13:43.341Z,63.50
2023-05-01T22:15:48.082Z,63.72
2023-05-01T22:17:53.007Z,63.73
2023-05-01T22:19:58.125Z,63.68
2023-05-01T22:22:03.127Z,63.84
2023-05-01T22:24:08.255Z,63.88
2023-05-01T22:26:13.649Z,64.13
2023-05-01T22:28:19.852Z,64.04
2023-05-01T22:30:25.878Z,64.34
2023-05-01T22:32:30.939Z,64.49
2023-05-01T22:34:35.864Z,64.28
2023-05-01T22:36:40.772Z,64.40
2023-05-01T22:38:45.689Z,64.56
2023-05-01T22:40:50.621Z,64.22
2023-05-01T22:42:55.667Z,64.26
2023-05-01T22:45:00.789Z,64.29
2023-05-01T22:47:05.768Z,64.33
2023-05-01T22:49:10.664Z,64.23
2023-05-01T22:51:15.782Z,64.54
2023-05-01T22:53:20.720Z,64.73
2023-05-01T22:55:25.694Z,64.54
2023-05-01T22:57:30.727Z,64.72
2023-05-01T22:59:35.780Z,64.84
2023-05-01T23:01:40.770Z,64.97
2023-05-01T23:03:46.124Z,65.19
2023-05-01T23:05:51.131Z,65.09
2023-05-01T23:07:56.196Z,65.03
2023-05-01T23:10:02.369Z,65.06
2023-05-01T23:12:14.676Z,65.30
2023-05-01T23:14:19.949Z,65.20
2023-05-01T23:16:25.172Z,65.31
2023-05-01T23:18:33.964Z,65.52
2023-05-01T23:20:40.202Z,65.78
2023-05-01T23:22:46.694Z,65.76
2023-05-01T23:24:51.636Z,66.00
2023-05-01T23:26:56.579Z,66.19
2023-05-01T23:29:02.049Z,66.29
2023-05-01T23:31:08.377Z,66.16
2023-05-01T23:33:14.722Z,66.10
2023-05-01T23:35:21.817Z,65.90
2023-05-01T23:37:26.752Z,65.82
2023-05-01T23:39:31.740Z,65.77
2023-05-01T23:41:39.623Z,65.75
2023-05-01T23:43:45.833Z,65.71
2023-05-01T23:45:51.071Z,65.63
2023-05-01T23:47:56.184Z,65.68
2023-05-01T23:50:01.671Z,65.47
2023-05-01T23:52:07.329Z,65.31
2023-05-01T23:54:12.289Z,65.31
2023-05-01T23:56:18.053Z,65.33
2023-05-01T23:58:23.254Z,65.21
